sensor_id;sensor_type;location;lat;lon;timestamp;temperature;humidity
2050;DHT22;8478;49.208;8.806;2023-09-12T00:00:54;20.10;99.90
2050;DHT22;8478;49.208;8.806;2023-09-12T00:03:21;20.10;99.90
2050;DHT22;8478;49.208;8.806;2023-09-12T00:05:53;20.10;99.90
2050;DHT22;8478;49.208;8.806;2023-09-12T00:08:19;20.10;99.90
2050;DHT22;8478;49.208;8.806;2023-09-12T00:10:45;20.10;99.90
2050;DHT22;8478;49.208;8.806;2023-09-12T00:13:10;20.10;99.90
2050;DHT22;8478;49.208;8.806;2023-09-12T00:15:36;20.00;99.90
2050;DHT22;8478;49.208;8.806;2023-09-12T00:18:02;20.10;99.90
2050;DHT22;8478;49.208;8.806;2023-09-12T00:20:28;20.10;99.90
2050;DHT22;8478;49.208;8.806;2023-09-12T00:22:53;20.10;99.90
2050;DHT22;8478;49.208;8.806;2023-09-12T00:25:20;20.00;99.90
2050;DHT22;8478;49.208;8.806;2023-09-12T00:27:46;20.10;99.90
2050;DHT22;8478;49.208;8.806;2023-09-12T00:30:14;20.10;99.90
2050;DHT22;8478;49.208;8.806;2023-09-12T00:32:40;20.00;99.90
2050;DHT22;8478;49.208;8.806;2023-09-12T00:35:06;20.00;99.90
2050;DHT22;8478;49.208;8.806;2023-09-12T00:37:32;20.00;99.90
2050;DHT22;8478;49.208;8.806;2023-09-12T00:39:58;20.00;99.90
2050;DHT22;8478;49.208;8.806;2023-09-12T00:42:27;20.00;99.90
2050;DHT22;8478;49.208;8.806;2023-09-12T00:44:53;20.00;99.90
2050;DHT22;8478;49.208;8.806;2023-09-12T00:47:19;20.00;99.90
2050;DHT22;8478;49.208;8.806;2023-09-12T00:49:47;20.00;99.90
2050;DHT22;8478;49.208;8.806;2023-09-12T00:52:13;20.00;99.90
2050;DHT22;8478;49.208;8.806;2023-09-12T00:54:39;20.00;99.90
2050;DHT22;8478;49.208;8.806;2023-09-12T00:57:05;20.00;99.90
2050;DHT22;8478;49.208;8.806;2023-09-12T00:59:32;20.00;99.90
2050;DHT22;8478;49.208;8.806;2023-09-12T01:01:58;20.00;99.90
2050;DHT22;8478;49.208;8.806;2023-09-12T01:04:25;20.00;99.90
2050;DHT22;8478;49.208;8.806;2023-09-12T01:06:51;20.00;99.90
2050;DHT22;8478;49.208;8.806;2023-09-12T01:09:17;20.00;99.90
2050;DHT22;8478;49.208;8.806;2023-09-12T01:11:43;20.00;99.90
2050;DHT22;8478;49.208;8.806;2023-09-12T01:14:09;20.00;99.90
2050;DHT22;8478;49.208;8.806;2023-09-12T01:16:35;20.00;99.90
2050;DHT22;8478;49.208;8.806;2023-09-12T01:19:01;20.00;99.90
2050;DHT22;8478;49.208;8.806;2023-09-12T01:27:27;20.00;99.90
2050;DHT22;8478;49.208;8.806;2023-09-12T01:29:57;20.00;99.90
2050;DHT22;8478;49.208;8.806;2023-09-12T01:32:23;20.00;99.90
2050;DHT22;8478;49.208;8.806;2023-09-12T01:34:49;20.00;99.90
2050;DHT22;8478;49.208;8.806;2023-09-12T01:37:15;20.00;99.90
2050;DHT22;8478;49.208;8.806;2023-09-12T01:39:41;20.00;99.90
2050;DHT22;8478;49.208;8.806;2023-09-12T01:42:10;20.00;99.90
2050;DHT22;8478;49.208;8.806;2023-09-12T01:44:37;20.00;99.90
2050;DHT22;8478;49.208;8.806;2023-09-12T01:47:05;20.00;99.90
2050;DHT22;8478;49.208;8.806;2023-09-12T01:49:32;19.90;99.90
2050;DHT22;8478;49.208;8.806;2023-09-12T01:51:59;20.00;99.90
2050;DHT22;8478;49.208;8.806;2023-09-12T01:54:27;19.90;99.90
2050;DHT22;8478;49.208;8.806;2023-09-12T01:56:54;19.90;99.90
2050;DHT22;8478;49.208;8.806;2023-09-12T01:59:23;19.90;99.90
2050;DHT22;8478;49.208;8.806;2023-09-12T02:01:50;20.00;99.90
2050;DHT22;8478;49.208;8.806;2023-09-12T02:04:16;19.90;99.90
2050;DHT22;8478;49.208;8.806;2023-09-12T02:06:42;19.90;99.90
2050;DHT22;8478;49.208;8.806;2023-09-12T02:09:07;19.90;99.90
2050;DHT22;8478;49.208;8.806;2023-09-12T02:11:33;19.90;99.90
2050;DHT22;8478;49.208;8.806;2023-09-12T02:13:59;19.90;99.90
2050;DHT22;8478;49.208;8.806;2023-09-12T02:16:24;19.90;99.90
2050;DHT22;8478;49.208;8.806;2023-09-12T02:18:50;19.90;99.90
2050;DHT22;8478;49.208;8.806;2023-09-12T02:21:15;19.90;99.90
2050;DHT22;8478;49.208;8.806;2023-09-12T02:23:42;19.90;99.90
2050;DHT22;8478;49.208;8.806;2023-09-12T02:26:07;19.90;99.90
2050;DHT22;8478;49.208;8.806;2023-09-12T02:28:33;19.90;99.90
2050;DHT22;8478;49.208;8.806;2023-09-12T02:30:59;19.90;99.90
2050;DHT22;8478;49.208;8.806;2023-09-12T02:33:24;19.90;99.90
2050;DHT22;8478;49.208;8.806;2023-09-12T02:35:50;19.90;99.90
2050;DHT22;8478;49.208;8.806;2023-09-12T02:38:17;19.90;99.90
2050;DHT22;8478;49.208;8.806;2023-09-12T02:40:43;19.90;99.90
2050;DHT22;8478;49.208;8.806;2023-09-12T02:43:08;19.90;99.90
2050;DHT22;8478;49.208;8.806;2023-09-12T02:45:34;19.90;99.90
2050;DHT22;8478;49.208;8.806;2023-09-12T02:48:00;19.90;99.90
2050;DHT22;8478;49.208;8.806;2023-09-12T02:50:25;19.90;99.90
2050;DHT22;8478;49.208;8.806;2023-09-12T02:52:51;19.90;99.90
2050;DHT22;8478;49.208;8.806;2023-09-12T02:55:17;19.90;99.90
2050;DHT22;8478;49.208;8.806;2023-09-12T02:57:42;19.90;99.90
2050;DHT22;8478;49.208;8.806;2023-09-12T03:00:08;19.90;99.90
2050;DHT22;8478;49.208;8.806;2023-09-12T03:02:34;19.90;99.90
2050;DHT22;8478;49.208;8.806;2023-09-12T03:05:00;19.90;99.90
2050;DHT22;8478;49.208;8.806;2023-09-12T03:07:29;19.90;99.90
2050;DHT22;8478;49.208;8.806;2023-09-12T03:09:56;19.90;99.90
2050;DHT22;8478;49.208;8.806;2023-09-12T03:12:21;19.80;99.90
2050;DHT22;8478;49.208;8.806;2023-09-12T03:14:47;19.90;99.90
2050;DHT22;8478;49.208;8.806;2023-09-12T03:17:13;19.80;99.90
2050;DHT22;8478;49.208;8.806;2023-09-12T03:19:38;19.90;99.90
2050;DHT22;8478;49.208;8.806;2023-09-12T03:22:04;19.80;99.90
2050;DHT22;8478;49.208;8.806;2023-09-12T03:24:30;19.80;99.90
2050;DHT22;8478;49.208;8.806;2023-09-12T03:26:56;19.80;99.90
2050;DHT22;8478;49.208;8.806;2023-09-12T03:29:22;19.80;99.90
2050;DHT22;8478;49.208;8.806;2023-09-12T03:31:48;19.80;99.90
2050;DHT22;8478;49.208;8.806;2023-09-12T03:34:14;19.90;99.90
2050;DHT22;8478;49.208;8.806;2023-09-12T03:36:40;19.80;99.90
2050;DHT22;8478;49.208;8.806;2023-09-12T03:39:05;19.80;99.90
2050;DHT22;8478;49.208;8.806;2023-09-12T03:41:37;19.80;99.90
2050;DHT22;8478;49.208;8.806;2023-09-12T03:44:02;19.80;99.90
2050;DHT22;8478;49.208;8.806;2023-09-12T03:46:28;19.80;99.90
2050;DHT22;8478;49.208;8.806;2023-09-12T03:48:54;19.80;99.90
2050;DHT22;8478;49.208;8.806;2023-09-12T03:51:19;19.80;99.90
2050;DHT22;8478;49.208;8.806;2023-09-12T03:53:45;19.80;99.90
2050;DHT22;8478;49.208;8.806;2023-09-12T03:56:13;19.90;99.90
2050;DHT22;8478;49.208;8.806;2023-09-12T03:58:40;19.80;99.90
2050;DHT22;8478;49.208;8.806;2023-09-12T04:01:06;19.90;99.90
2050;DHT22;8478;49.208;8.806;2023-09-12T04:03:31;19.90;99.90
2050;DHT22;8478;49.208;8.806;2023-09-12T04:05:57;19.80;99.90
2050;DHT22;8478;49.208;8.806;2023-09-12T04:08:23;19.80;99.90
2050;DHT22;8478;49.208;8.806;2023-09-12T04:10:48;19.80;99.90
2050;DHT22;8478;49.208;8.806;2023-09-12T04:13:14;19.80;99.90
2050;DHT22;8478;49.208;8.806;2023-09-12T04:15:40;19.80;99.90
2050;DHT22;8478;49.208;8.806;2023-09-12T04:18:05;19.80;99.90
2050;DHT22;8478;49.208;8.806;2023-09-12T04:20:31;19.80;99.90
2050;DHT22;8478;49.208;8.806;2023-09-12T04:22:57;19.80;99.90
2050;DHT22;8478;49.208;8.806;2023-09-12T04:25:23;19.80;99.90
2050;DHT22;8478;49.208;8.806;2023-09-12T04:27:49;19.80;99.90
2050;DHT22;8478;49.208;8.806;2023-09-12T04:30:14;19.80;99.90
2050;DHT22;8478;49.208;8.806;2023-09-12T04:32:40;19.80;99.90
2050;DHT22;8478;49.208;8.806;2023-09-12T04:35:06;19.80;99.90
2050;DHT22;8478;49.208;8.806;2023-09-12T04:37:32;19.80;99.90
2050;DHT22;8478;49.208;8.806;2023-09-12T04:39:57;19.80;99.90
2050;DHT22;8478;49.208;8.806;2023-09-12T04:42:23;19.80;99.90
2050;DHT22;8478;49.208;8.806;2023-09-12T04:44:49;19.80;99.90
2050;DHT22;8478;49.208;8.806;2023-09-12T04:47:14;19.80;99.90
2050;DHT22;8478;49.208;8.806;2023-09-12T04:49:41;19.80;99.90
2050;DHT22;8478;49.208;8.806;2023-09-12T04:52:07;19.80;99.90
2050;DHT22;8478;49.208;8.806;2023-09-12T04:54:32;19.80;99.90
2050;DHT22;8478;49.208;8.806;2023-09-12T04:56:58;19.80;99.90
2050;DHT22;8478;49.208;8.806;2023-09-12T04:59:24;19.80;99.90
2050;DHT22;8478;49.208;8.806;2023-09-12T05:01:49;19.80;99.90
2050;DHT22;8478;49.208;8.806;2023-09-12T05:04:16;19.80;99.90
2050;DHT22;8478;49.208;8.806;2023-09-12T05:06:42;19.80;99.90
2050;DHT22;8478;49.208;8.806;2023-09-12T05:09:07;19.80;99.90
2050;DHT22;8478;49.208;8.806;2023-09-12T05:11:34;19.80;99.90
2050;DHT22;8478;49.208;8.806;2023-09-12T05:14:00;19.80;99.90
2050;DHT22;8478;49.208;8.806;2023-09-12T05:16:29;19.80;99.90
2050;DHT22;8478;49.208;8.806;2023-09-12T05:18:54;19.80;99.90
2050;DHT22;8478;49.208;8.806;2023-09-12T05:21:20;19.80;99.90
2050;DHT22;8478;49.208;8.806;2023-09-12T05:23:46;19.80;99.90
2050;DHT22;8478;49.208;8.806;2023-09-12T05:26:12;19.80;99.90
2050;DHT22;8478;49.208;8.806;2023-09-12T05:28:37;19.80;99.90
2050;DHT22;8478;49.208;8.806;2023-09-12T05:31:03;19.80;99.90
2050;DHT22;8478;49.208;8.806;2023-09-12T05:33:29;19.80;99.90
2050;DHT22;8478;49.208;8.806;2023-09-12T05:35:54;19.80;99.90
2050;DHT22;8478;49.208;8.806;2023-09-12T05:38:20;19.80;99.90
2050;DHT22;8478;49.208;8.806;2023-09-12T05:40:46;19.80;99.90
2050;DHT22;8478;49.208;8.806;2023-09-12T05:43:12;19.80;99.90
2050;DHT22;8478;49.208;8.806;2023-09-12T05:45:37;19.80;99.90
2050;DHT22;8478;49.208;8.806;2023-09-12T05:48:03;19.80;99.90
2050;DHT22;8478;49.208;8.806;2023-09-12T05:50:30;19.80;99.90
2050;DHT22;8478;49.208;8.806;2023-09-12T05:52:55;19.80;99.90
2050;DHT22;8478;49.208;8.806;2023-09-12T05:55:21;19.80;99.90
2050;DHT22;8478;49.208;8.806;2023-09-12T05:57:48;19.80;99.90
2050;DHT22;8478;49.208;8.806;2023-09-12T06:00:18;19.80;99.90
2050;DHT22;8478;49.208;8.806;2023-09-12T06:02:44;19.80;99.90
2050;DHT22;8478;49.208;8.806;2023-09-12T06:05:09;19.80;99.90
2050;DHT22;8478;49.208;8.806;2023-09-12T06:07:35;19.80;99.90
2050;DHT22;8478;49.208;8.806;2023-09-12T06:10:02;19.80;99.90
2050;DHT22;8478;49.208;8.806;2023-09-12T06:12:28;19.80;99.90
2050;DHT22;8478;49.208;8.806;2023-09-12T06:14:53;19.80;99.90
2050;DHT22;8478;49.208;8.806;2023-09-12T06:17:21;19.80;99.90
2050;DHT22;8478;49.208;8.806;2023-09-12T06:19:47;19.80;99.90
2050;DHT22;8478;49.208;8.806;2023-09-12T06:22:15;19.80;99.90
2050;DHT22;8478;49.208;8.806;2023-09-12T06:24:43;19.80;99.90
2050;DHT22;8478;49.208;8.806;2023-09-12T06:27:09;19.80;99.90
2050;DHT22;8478;49.208;8.806;2023-09-12T06:29:35;19.80;99.90
2050;DHT22;8478;49.208;8.806;2023-09-12T06:32:00;19.80;99.90
2050;DHT22;8478;49.208;8.806;2023-09-12T06:34:27;19.80;99.90
2050;DHT22;8478;49.208;8.806;2023-09-12T06:36:53;19.80;99.90
2050;DHT22;8478;49.208;8.806;2023-09-12T06:39:19;19.80;99.90
2050;DHT22;8478;49.208;8.806;2023-09-12T06:41:45;19.80;99.90
2050;DHT22;8478;49.208;8.806;2023-09-12T06:44:10;19.80;99.90
2050;DHT22;8478;49.208;8.806;2023-09-12T06:46:37;19.80;99.90
2050;DHT22;8478;49.208;8.806;2023-09-12T06:49:03;19.80;99.90
2050;DHT22;8478;49.208;8.806;2023-09-12T06:51:29;19.80;99.90
2050;DHT22;8478;49.208;8.806;2023-09-12T06:53:55;19.80;99.90
2050;DHT22;8478;49.208;8.806;2023-09-12T06:56:21;19.80;99.90
2050;DHT22;8478;49.208;8.806;2023-09-12T06:58:47;19.80;99.90
2050;DHT22;8478;49.208;8.806;2023-09-12T07:01:13;19.80;99.90
2050;DHT22;8478;49.208;8.806;2023-09-12T07:03:39;19.80;99.90
2050;DHT22;8478;49.208;8.806;2023-09-12T07:06:05;19.80;99.90
2050;DHT22;8478;49.208;8.806;2023-09-12T07:08:31;19.80;99.90
2050;DHT22;8478;49.208;8.806;2023-09-12T07:10:58;19.80;99.90
2050;DHT22;8478;49.208;8.806;2023-09-12T07:13:25;19.80;99.90
2050;DHT22;8478;49.208;8.806;2023-09-12T07:15:50;19.80;99.90
2050;DHT22;8478;49.208;8.806;2023-09-12T07:18:17;19.80;99.90
2050;DHT22;8478;49.208;8.806;2023-09-12T07:20:42;19.80;99.90
2050;DHT22;8478;49.208;8.806;2023-09-12T07:23:08;19.80;99.90
2050;DHT22;8478;49.208;8.806;2023-09-12T07:25:40;19.80;99.90
2050;DHT22;8478;49.208;8.806;2023-09-12T07:28:09;19.80;99.90
2050;DHT22;8478;49.208;8.806;2023-09-12T07:30:35;19.80;99.90
2050;DHT22;8478;49.208;8.806;2023-09-12T07:33:03;19.80;99.90
2050;DHT22;8478;49.208;8.806;2023-09-12T07:35:30;19.80;99.90
2050;DHT22;8478;49.208;8.806;2023-09-12T07:37:56;19.80;99.90
2050;DHT22;8478;49.208;8.806;2023-09-12T07:40:22;19.80;99.90
2050;DHT22;8478;49.208;8.806;2023-09-12T07:42:47;19.80;99.90
2050;DHT22;8478;49.208;8.806;2023-09-12T07:45:13;19.80;99.90
2050;DHT22;8478;49.208;8.806;2023-09-12T07:47:39;19.80;99.90
2050;DHT22;8478;49.208;8.806;2023-09-12T07:50:05;19.80;99.90
2050;DHT22;8478;49.208;8.806;2023-09-12T07:52:32;19.80;99.90
2050;DHT22;8478;49.208;8.806;2023-09-12T07:55:02;19.80;99.90
2050;DHT22;8478;49.208;8.806;2023-09-12T07:57:29;19.80;99.90
2050;DHT22;8478;49.208;8.806;2023-09-12T07:59:55;19.80;99.90
2050;DHT22;8478;49.208;8.806;2023-09-12T08:02:21;19.80;99.90
2050;DHT22;8478;49.208;8.806;2023-09-12T08:04:48;19.80;99.90
2050;DHT22;8478;49.208;8.806;2023-09-12T08:07:14;19.80;99.90
2050;DHT22;8478;49.208;8.806;2023-09-12T08:09:51;19.80;99.90
2050;DHT22;8478;49.208;8.806;2023-09-12T08:12:19;19.80;99.90
2050;DHT22;8478;49.208;8.806;2023-09-12T08:14:44;19.80;99.90
2050;DHT22;8478;49.208;8.806;2023-09-12T08:17:11;19.80;99.90
2050;DHT22;8478;49.208;8.806;2023-09-12T08:19:37;19.80;99.90
2050;DHT22;8478;49.208;8.806;2023-09-12T08:22:03;19.80;99.90
2050;DHT22;8478;49.208;8.806;2023-09-12T08:24:29;19.80;99.90
2050;DHT22;8478;49.208;8.806;2023-09-12T08:26:55;19.80;99.90
2050;DHT22;8478;49.208;8.806;2023-09-12T08:29:21;19.80;99.90
2050;DHT22;8478;49.208;8.806;2023-09-12T08:31:46;19.80;99.90
2050;DHT22;8478;49.208;8.806;2023-09-12T08:34:13;19.80;99.90
2050;DHT22;8478;49.208;8.806;2023-09-12T08:36:39;19.80;99.90
2050;DHT22;8478;49.208;8.806;2023-09-12T08:39:05;19.80;99.90
2050;DHT22;8478;49.208;8.806;2023-09-12T08:41:33;19.80;99.90
2050;DHT22;8478;49.208;8.806;2023-09-12T08:44:01;19.80;99.90
2050;DHT22;8478;49.208;8.806;2023-09-12T08:46:27;19.90;99.90
2050;DHT22;8478;49.208;8.806;2023-09-12T08:48:56;19.80;99.90
2050;DHT22;8478;49.208;8.806;2023-09-12T08:51:23;19.80;99.90
2050;DHT22;8478;49.208;8.806;2023-09-12T08:53:52;19.80;99.90
2050;DHT22;8478;49.208;8.806;2023-09-12T08:56:18;19.90;99.90
2050;DHT22;8478;49.208;8.806;2023-09-12T08:58:45;19.80;99.90
2050;DHT22;8478;49.208;8.806;2023-09-12T09:01:13;19.90;99.90
2050;DHT22;8478;49.208;8.806;2023-09-12T09:03:41;19.80;99.90
2050;DHT22;8478;49.208;8.806;2023-09-12T09:06:08;19.80;99.90
2050;DHT22;8478;49.208;8.806;2023-09-12T09:08:35;19.80;99.90
2050;DHT22;8478;49.208;8.806;2023-09-12T09:11:01;19.90;99.90
2050;DHT22;8478;49.208;8.806;2023-09-12T09:13:32;19.80;99.90
2050;DHT22;8478;49.208;8.806;2023-09-12T09:16:18;19.90;99.90
2050;DHT22;8478;49.208;8.806;2023-09-12T09:19:04;19.90;99.90
2050;DHT22;8478;49.208;8.806;2023-09-12T09:21:35;19.90;99.90
2050;DHT22;8478;49.208;8.806;2023-09-12T09:24:03;19.90;99.90
2050;DHT22;8478;49.208;8.806;2023-09-12T09:26:50;19.90;99.90
2050;DHT22;8478;49.208;8.806;2023-09-12T09:29:20;19.90;99.90
2050;DHT22;8478;49.208;8.806;2023-09-12T09:31:47;19.90;99.90
2050;DHT22;8478;49.208;8.806;2023-09-12T09:34:17;19.90;99.90
2050;DHT22;8478;49.208;8.806;2023-09-12T09:36:46;19.90;99.90
2050;DHT22;8478;49.208;8.806;2023-09-12T09:39:12;19.90;99.90
2050;DHT22;8478;49.208;8.806;2023-09-12T09:41:39;19.90;99.90
2050;DHT22;8478;49.208;8.806;2023-09-12T09:44:06;19.90;99.90
2050;DHT22;8478;49.208;8.806;2023-09-12T09:46:32;19.90;99.90
2050;DHT22;8478;49.208;8.806;2023-09-12T09:48:58;19.90;99.90
2050;DHT22;8478;49.208;8.806;2023-09-12T09:51:25;19.90;99.90
2050;DHT22;8478;49.208;8.806;2023-09-12T09:53:52;19.90;99.90
2050;DHT22;8478;49.208;8.806;2023-09-12T09:56:20;19.90;99.90
2050;DHT22;8478;49.208;8.806;2023-09-12T09:58:51;19.90;99.90
2050;DHT22;8478;49.208;8.806;2023-09-12T10:01:19;19.90;99.90
2050;DHT22;8478;49.208;8.806;2023-09-12T10:03:50;20.00;99.90
2050;DHT22;8478;49.208;8.806;2023-09-12T10:06:17;20.00;99.90
2050;DHT22;8478;49.208;8.806;2023-09-12T10:08:50;20.00;99.90
2050;DHT22;8478;49.208;8.806;2023-09-12T10:11:18;20.00;99.90
2050;DHT22;8478;49.208;8.806;2023-09-12T10:13:49;20.00;99.90
2050;DHT22;8478;49.208;8.806;2023-09-12T10:16:16;20.00;99.90
2050;DHT22;8478;49.208;8.806;2023-09-12T10:21:34;20.00;99.90
2050;DHT22;8478;49.208;8.806;2023-09-12T10:24:03;20.00;99.90
2050;DHT22;8478;49.208;8.806;2023-09-12T10:26:30;20.00;99.90
2050;DHT22;8478;49.208;8.806;2023-09-12T10:28:57;20.00;99.90
2050;DHT22;8478;49.208;8.806;2023-09-12T10:31:24;20.00;99.90
2050;DHT22;8478;49.208;8.806;2023-09-12T10:33:51;20.00;99.90
2050;DHT22;8478;49.208;8.806;2023-09-12T10:36:18;20.00;99.90
2050;DHT22;8478;49.208;8.806;2023-09-12T10:38:47;20.00;99.90
2050;DHT22;8478;49.208;8.806;2023-09-12T10:41:14;20.00;99.90
2050;DHT22;8478;49.208;8.806;2023-09-12T10:43:41;20.00;99.90
2050;DHT22;8478;49.208;8.806;2023-09-12T10:46:09;20.00;99.90
2050;DHT22;8478;49.208;8.806;2023-09-12T10:48:36;20.10;99.90
2050;DHT22;8478;49.208;8.806;2023-09-12T10:51:02;20.10;99.90
2050;DHT22;8478;49.208;8.806;2023-09-12T10:53:31;20.10;99.90
2050;DHT22;8478;49.208;8.806;2023-09-12T10:58:25;20.10;99.90
2050;DHT22;8478;49.208;8.806;2023-09-12T11:01:22;20.10;99.90
2050;DHT22;8478;49.208;8.806;2023-09-12T11:03:48;20.10;99.90
2050;DHT22;8478;49.208;8.806;2023-09-12T11:06:22;20.10;99.90
2050;DHT22;8478;49.208;8.806;2023-09-12T11:11:39;20.10;99.90
2050;DHT22;8478;49.208;8.806;2023-09-12T11:14:05;20.10;99.90
2050;DHT22;8478;49.208;8.806;2023-09-12T11:16:32;20.10;99.90
2050;DHT22;8478;49.208;8.806;2023-09-12T11:21:46;20.10;99.90
2050;DHT22;8478;49.208;8.806;2023-09-12T11:24:13;20.10;99.90
2050;DHT22;8478;49.208;8.806;2023-09-12T11:27:00;20.10;99.90
2050;DHT22;8478;49.208;8.806;2023-09-12T11:29:38;20.10;99.90
2050;DHT22;8478;49.208;8.806;2023-09-12T11:32:05;20.10;99.90
2050;DHT22;8478;49.208;8.806;2023-09-12T11:34:37;20.20;99.90
2050;DHT22;8478;49.208;8.806;2023-09-12T11:37:04;20.20;99.90
2050;DHT22;8478;49.208;8.806;2023-09-12T11:39:34;20.20;99.90
2050;DHT22;8478;49.208;8.806;2023-09-12T11:42:02;20.20;99.90
2050;DHT22;8478;49.208;8.806;2023-09-12T11:44:28;20.20;99.90
2050;DHT22;8478;49.208;8.806;2023-09-12T11:46:55;20.20;99.90
2050;DHT22;8478;49.208;8.806;2023-09-12T11:49:21;20.20;99.90
2050;DHT22;8478;49.208;8.806;2023-09-12T11:51:48;20.20;99.90
2050;DHT22;8478;49.208;8.806;2023-09-12T11:54:15;20.20;99.90
2050;DHT22;8478;49.208;8.806;2023-09-12T11:56:41;20.20;99.90
2050;DHT22;8478;49.208;8.806;2023-09-12T11:59:08;20.20;99.90
2050;DHT22;8478;49.208;8.806;2023-09-12T12:01:34;20.20;99.90
2050;DHT22;8478;49.208;8.806;2023-09-12T12:03:59;20.20;99.90
2050;DHT22;8478;49.208;8.806;2023-09-12T12:06:25;20.20;99.90
2050;DHT22;8478;49.208;8.806;2023-09-12T12:08:51;20.20;99.90
2050;DHT22;8478;49.208;8.806;2023-09-12T12:11:20;20.20;99.90
2050;DHT22;8478;49.208;8.806;2023-09-12T12:13:45;20.20;99.90
2050;DHT22;8478;49.208;8.806;2023-09-12T12:16:15;20.20;99.90
2050;DHT22;8478;49.208;8.806;2023-09-12T12:18:42;20.20;99.90
2050;DHT22;8478;49.208;8.806;2023-09-12T12:21:08;20.20;99.90
2050;DHT22;8478;49.208;8.806;2023-09-12T12:23:33;20.30;99.90
2050;DHT22;8478;49.208;8.806;2023-09-12T12:26:08;20.30;99.90
2050;DHT22;8478;49.208;8.806;2023-09-12T12:28:37;20.30;99.90
2050;DHT22;8478;49.208;8.806;2023-09-12T12:31:04;20.30;99.90
2050;DHT22;8478;49.208;8.806;2023-09-12T12:33:30;20.30;99.90
2050;DHT22;8478;49.208;8.806;2023-09-12T12:36:03;20.30;99.90
2050;DHT22;8478;49.208;8.806;2023-09-12T12:38:37;20.30;99.90
2050;DHT22;8478;49.208;8.806;2023-09-12T12:41:03;20.30;99.90
2050;DHT22;8478;49.208;8.806;2023-09-12T12:43:30;20.30;99.90
2050;DHT22;8478;49.208;8.806;2023-09-12T12:45:57;20.30;99.90
2050;DHT22;8478;49.208;8.806;2023-09-12T12:48:34;20.30;99.90
2050;DHT22;8478;49.208;8.806;2023-09-12T12:51:11;20.30;99.90
2050;DHT22;8478;49.208;8.806;2023-09-12T12:53:42;20.30;99.90
2050;DHT22;8478;49.208;8.806;2023-09-12T12:56:10;20.30;99.90
2050;DHT22;8478;49.208;8.806;2023-09-12T12:58:36;20.30;99.90
2050;DHT22;8478;49.208;8.806;2023-09-12T13:01:02;20.40;99.90
2050;DHT22;8478;49.208;8.806;2023-09-12T13:03:28;20.30;99.90
2050;DHT22;8478;49.208;8.806;2023-09-12T13:05:53;20.30;99.90
2050;DHT22;8478;49.208;8.806;2023-09-12T13:08:19;20.40;99.90
2050;DHT22;8478;49.208;8.806;2023-09-12T13:10:45;20.30;99.90
2050;DHT22;8478;49.208;8.806;2023-09-12T13:13:10;20.30;99.90
2050;DHT22;8478;49.208;8.806;2023-09-12T13:15:36;20.40;99.90
2050;DHT22;8478;49.208;8.806;2023-09-12T13:18:02;20.40;99.90
2050;DHT22;8478;49.208;8.806;2023-09-12T13:20:29;20.40;99.90
2050;DHT22;8478;49.208;8.806;2023-09-12T13:22:55;20.40;99.90
2050;DHT22;8478;49.208;8.806;2023-09-12T13:25:21;20.40;99.90
2050;DHT22;8478;49.208;8.806;2023-09-12T13:27:49;20.40;99.90
2050;DHT22;8478;49.208;8.806;2023-09-12T13:30:14;20.40;99.90
2050;DHT22;8478;49.208;8.806;2023-09-12T13:32:40;20.40;99.90
2050;DHT22;8478;49.208;8.806;2023-09-12T13:35:06;20.50;99.90
2050;DHT22;8478;49.208;8.806;2023-09-12T13:37:33;20.40;99.90
2050;DHT22;8478;49.208;8.806;2023-09-12T13:39:59;20.40;99.90
2050;DHT22;8478;49.208;8.806;2023-09-12T13:42:25;20.40;99.90
2050;DHT22;8478;49.208;8.806;2023-09-12T13:44:53;20.40;99.90
2050;DHT22;8478;49.208;8.806;2023-09-12T13:47:20;20.40;99.90
2050;DHT22;8478;49.208;8.806;2023-09-12T13:49:49;20.40;99.90
2050;DHT22;8478;49.208;8.806;2023-09-12T13:52:17;20.40;99.90
2050;DHT22;8478;49.208;8.806;2023-09-12T13:54:42;20.40;99.90
2050;DHT22;8478;49.208;8.806;2023-09-12T13:57:09;20.40;99.90
2050;DHT22;8478;49.208;8.806;2023-09-12T13:59:34;20.40;99.90
2050;DHT22;8478;49.208;8.806;2023-09-12T14:02:00;20.40;99.90
2050;DHT22;8478;49.208;8.806;2023-09-12T14:04:25;20.50;99.90
2050;DHT22;8478;49.208;8.806;2023-09-12T14:06:51;20.40;99.90
2050;DHT22;8478;49.208;8.806;2023-09-12T14:09:17;20.50;99.90
2050;DHT22;8478;49.208;8.806;2023-09-12T14:11:42;20.40;99.90
2050;DHT22;8478;49.208;8.806;2023-09-12T14:14:09;20.40;99.90
2050;DHT22;8478;49.208;8.806;2023-09-12T14:16:34;20.50;99.90
2050;DHT22;8478;49.208;8.806;2023-09-12T14:19:00;20.50;99.90
2050;DHT22;8478;49.208;8.806;2023-09-12T14:21:25;20.50;99.90
2050;DHT22;8478;49.208;8.806;2023-09-12T14:23:51;20.50;99.90
2050;DHT22;8478;49.208;8.806;2023-09-12T14:26:17;20.50;99.90
2050;DHT22;8478;49.208;8.806;2023-09-12T14:28:42;20.50;99.90
2050;DHT22;8478;49.208;8.806;2023-09-12T14:31:08;20.50;99.90
2050;DHT22;8478;49.208;8.806;2023-09-12T14:33:39;20.50;99.90
2050;DHT22;8478;49.208;8.806;2023-09-12T14:36:07;20.50;99.90
2050;DHT22;8478;49.208;8.806;2023-09-12T14:38:33;20.50;99.90
2050;DHT22;8478;49.208;8.806;2023-09-12T14:40:59;20.50;99.90
2050;DHT22;8478;49.208;8.806;2023-09-12T14:43:24;20.50;99.90
2050;DHT22;8478;49.208;8.806;2023-09-12T14:45:51;20.60;99.90
2050;DHT22;8478;49.208;8.806;2023-09-12T14:48:17;20.50;99.90
2050;DHT22;8478;49.208;8.806;2023-09-12T14:50:43;20.50;99.90
2050;DHT22;8478;49.208;8.806;2023-09-12T14:53:09;20.50;99.90
2050;DHT22;8478;49.208;8.806;2023-09-12T14:55:35;20.50;99.90
2050;DHT22;8478;49.208;8.806;2023-09-12T14:58:00;20.50;99.90
2050;DHT22;8478;49.208;8.806;2023-09-12T15:00:26;20.50;99.90
2050;DHT22;8478;49.208;8.806;2023-09-12T15:02:53;20.60;99.90
2050;DHT22;8478;49.208;8.806;2023-09-12T15:05:19;20.60;99.90
2050;DHT22;8478;49.208;8.806;2023-09-12T15:07:44;20.60;99.90
2050;DHT22;8478;49.208;8.806;2023-09-12T15:10:10;20.60;99.90
2050;DHT22;8478;49.208;8.806;2023-09-12T15:12:35;20.60;99.90
2050;DHT22;8478;49.208;8.806;2023-09-12T15:15:03;20.60;99.90
2050;DHT22;8478;49.208;8.806;2023-09-12T15:17:29;20.60;99.90
2050;DHT22;8478;49.208;8.806;2023-09-12T15:19:54;20.60;99.90
2050;DHT22;8478;49.208;8.806;2023-09-12T15:22:21;20.60;99.90
2050;DHT22;8478;49.208;8.806;2023-09-12T15:24:46;20.60;99.90
2050;DHT22;8478;49.208;8.806;2023-09-12T15:27:12;20.60;99.90
2050;DHT22;8478;49.208;8.806;2023-09-12T15:29:37;20.60;99.90
2050;DHT22;8478;49.208;8.806;2023-09-12T15:32:03;20.60;99.90
2050;DHT22;8478;49.208;8.806;2023-09-12T15:34:31;20.60;99.90
2050;DHT22;8478;49.208;8.806;2023-09-12T15:37:13;20.60;99.90
2050;DHT22;8478;49.208;8.806;2023-09-12T15:39:39;20.60;99.90
2050;DHT22;8478;49.208;8.806;2023-09-12T15:42:06;20.60;99.90
2050;DHT22;8478;49.208;8.806;2023-09-12T15:44:32;20.60;99.90
2050;DHT22;8478;49.208;8.806;2023-09-12T15:46:57;20.70;99.90
2050;DHT22;8478;49.208;8.806;2023-09-12T15:49:26;20.60;99.90
2050;DHT22;8478;49.208;8.806;2023-09-12T15:51:52;20.60;99.90
2050;DHT22;8478;49.208;8.806;2023-09-12T15:54:18;20.60;99.90
2050;DHT22;8478;49.208;8.806;2023-09-12T15:56:44;20.60;99.90
2050;DHT22;8478;49.208;8.806;2023-09-12T15:59:09;20.60;99.90
2050;DHT22;8478;49.208;8.806;2023-09-12T16:01:35;20.60;99.90
2050;DHT22;8478;49.208;8.806;2023-09-12T16:04:01;20.60;99.90
2050;DHT22;8478;49.208;8.806;2023-09-12T16:06:27;20.70;99.90
2050;DHT22;8478;49.208;8.806;2023-09-12T16:08:53;20.70;99.90
2050;DHT22;8478;49.208;8.806;2023-09-12T16:11:19;20.70;99.90
2050;DHT22;8478;49.208;8.806;2023-09-12T16:13:44;20.70;99.90
2050;DHT22;8478;49.208;8.806;2023-09-12T16:16:10;20.70;99.90